Flight Track Log - Related Links

Times and Time Zones

All times are in EDT time to prevent confusion due to time zone crossing. See the FDX1570 flight status page for this flight to view local times or setup timezone preferences in your user account.


Time Position Orientation Groundspeed Altitude Reporting Facility
EDT Latitude Longitude Course Direction KTS MPH feet Rate Location/Type
Fri 04:24:36 AM 35.0167 -89.9667 180° South 177 204 1,200  Level Memphis TRACON
Fri 04:25:09 AM 35.0000 -89.9667 180° South 182 209 2,200 1,733 Climbing Memphis TRACON
Fri 04:26:06 AM 34.9500 -89.9167 141° Southeast 260 299 3,800 2,098 Climbing Memphis TRACON
Fri 04:27:12 AM 34.9833 -89.8167 68° East 298 343 6,500 2,625 Climbing Memphis TRACON
Fri 04:28:14 AM 35.0183 -89.7258 65° Northeast 283 326 9,400 2,262 Climbing Memphis Center
Fri 04:29:14 AM 35.0553 -89.6367 63° Northeast 343 395 11,100 1,650 Climbing Memphis Center
Fri 04:30:14 AM 35.0964 -89.5194 67° East 347 399 12,700 2,050 Climbing Memphis Center
Fri 04:31:14 AM 35.1558 -89.4072 57° Northeast 378 435 15,200 2,300 Climbing Memphis Center
Fri 04:32:14 AM 35.2261 -89.2997 51° Northeast 393 452 17,300 2,100 Climbing Memphis Center
Fri 04:33:14 AM 35.2958 -89.1817 54° Northeast 420 483 19,400 2,000 Climbing Memphis Center
Fri 04:34:14 AM 35.3656 -89.0636 54° Northeast 426 490 21,300 1,900 Climbing Memphis Center
Fri 04:35:14 AM 35.4311 -88.9556 53° Northeast 434 499 23,200 1,755 Climbing Memphis Center
Fri 04:40:30 AM 35.8550 -88.2510 53° Northeast 473 544 32,300 1,717 Climbing FlightAware ADS-B
Fri 04:41:14 AM 35.9100 -88.1580 54° Northeast 468 539 33,500 1,610 Climbing FlightAware ADS-B
Fri 04:41:52 AM 35.9590 -88.0760 54° Northeast 467 537 34,500 1,683 Climbing FlightAware ADS-B
Fri 04:42:36 AM 36.0160 -87.9780 54° Northeast 464 534 35,800 1,683 Climbing FlightAware ADS-B
Fri 04:43:14 AM 36.0640 -87.8960 54° Northeast 459 528 36,800 857 Climbing FlightAware ADS-B
Fri 04:44:00 AM 36.1200 -87.8010 54° Northeast 454 522 37,000 136 Climbing FlightAware ADS-B
Fri 04:44:42 AM 36.1730 -87.7100 54° Northeast 457 526 37,000  Level FlightAware ADS-B
Fri 04:45:22 AM 36.2220 -87.6250 54° Northeast 460 529 37,000  Level FlightAware ADS-B
Fri 04:46:05 AM 36.2750 -87.5350 54° Northeast 462 532 37,000  Level FlightAware ADS-B
Fri 04:46:42 AM 36.3230 -87.4530 54° Northeast 464 534 37,000  Level FlightAware ADS-B
Fri 04:47:30 AM 36.3820 -87.3490 55° Northeast 465 535 37,000  Level FlightAware ADS-B
Fri 04:48:14 AM 36.4370 -87.2550 54° Northeast 465 535 37,000  Level FlightAware ADS-B
Fri 04:48:54 AM 36.4880 -87.1660 55° Northeast 465 535 37,000  Level FlightAware ADS-B
Fri 04:49:36 AM 36.5400 -87.0750 55° Northeast 465 535 37,000  Level FlightAware ADS-B
Fri 04:50:14 AM 36.5870 -86.9940 54° Northeast 465 535 37,000  Level FlightAware ADS-B
Fri 04:50:58 AM 36.6420 -86.8980 54° Northeast 466 536 37,000  Level FlightAware ADS-B
Fri 04:51:19 AM 36.6690 -86.8496 55° Northeast 466 536 37,000  Level FlightAware ADS-B
Fri 04:51:49 AM 36.7067 -86.7838 54° Northeast 466 536 37,000  Level FlightAware ADS-B
Fri 04:52:20 AM 36.7442 -86.7180 55° Northeast 467 537 37,000  Level FlightAware ADS-B
Fri 04:52:50 AM 36.7826 -86.6497 55° Northeast 467 537 37,000  Level FlightAware ADS-B
Fri 04:53:21 AM 36.8206 -86.5814 55° Northeast 467 537 37,000  Level FlightAware ADS-B
Fri 04:53:51 AM 36.8581 -86.5155 55° Northeast 467 537 37,000  Level FlightAware ADS-B
Fri 04:54:22 AM 36.8962 -86.4472 55° Northeast 467 537 37,000  Level FlightAware ADS-B
Fri 04:54:56 AM 36.9390 -86.3719 55° Northeast 467 537 37,000  Level FlightAware ADS-B
Fri 04:55:27 AM 36.9776 -86.3033 55° Northeast 468 539 37,000  Level FlightAware ADS-B
Fri 04:56:00 AM 37.0175 -86.2324 55° Northeast 468 539 37,000  Level FlightAware ADS-B
Fri 04:57:07 AM 37.0840 -86.1110 55° Northeast 468 539 37,000  Level FlightAware ADS-B
Fri 04:58:01 AM 37.1660 -85.9640 55° Northeast 471 542 37,000  Level FlightAware ADS-B
Fri 04:58:41 AM 37.2180 -85.8720 55° Northeast 471 542 37,000  Level FlightAware ADS-B
Fri 04:59:25 AM 37.2660 -85.7840 56° Northeast 472 543 37,000  Level FlightAware ADS-B
Fri 05:00:54 AM 37.3834 -85.5700 55° Northeast 473 544 37,000  Level FlightAware ADS-B
Fri 05:01:29 AM 37.4263 -85.4908 56° Northeast 473 544 37,000  Level FlightAware ADS-B
Fri 05:01:59 AM 37.4636 -85.4228 55° Northeast 473 544 37,000  Level FlightAware ADS-B
Fri 05:02:29 AM 37.5007 -85.3548 55° Northeast 473 544 37,000  Level FlightAware ADS-B
Fri 05:02:59 AM 37.5380 -85.2863 56° Northeast 474 545 37,000  Level FlightAware ADS-B
Fri 05:03:29 AM 37.5756 -85.2179 55° Northeast 474 545 37,000  Level FlightAware ADS-B
Fri 05:04:01 AM 37.6147 -85.1449 56° Northeast 474 545 37,000  Level FlightAware ADS-B
Fri 05:04:32 AM 37.6523 -85.0762 55° Northeast 475 547 37,000  Level FlightAware ADS-B
Fri 05:05:08 AM 37.6970 -84.9910 56° Northeast 475 547 37,000  Level FlightAware ADS-B
Fri 05:05:33 AM 37.7280 -84.9360 55° Northeast 476 548 37,000  Level FlightAware ADS-B
Fri 05:06:19 AM 37.7840 -84.8300 56° Northeast 477 549 37,000  Level FlightAware ADS-B
Fri 05:07:06 AM 37.8430 -84.7190 56° Northeast 477 549 37,000  Level FlightAware ADS-B
Fri 05:07:46 AM 37.8930 -84.6260 56° Northeast 477 549 37,000  Level FlightAware ADS-B
Fri 05:08:30 AM 37.9460 -84.5270 56° Northeast 477 549 37,000  Level FlightAware ADS-B
Fri 05:09:10 AM 37.9960 -84.4310 57° Northeast 480 552 37,000  Level FlightAware ADS-B
Fri 05:10:22 AM 38.0770 -84.2810 56° Northeast 480 552 37,000  Level FlightAware ADS-B
Fri 05:10:44 AM 38.1000 -84.2370 56° Northeast 480 552 37,000  Level FlightAware ADS-B
Fri 05:11:23 AM 38.1410 -84.1590 56° Northeast 480 552 37,000  Level FlightAware ADS-B
Fri 05:12:13 AM 38.1940 -84.0600 56° Northeast 480 552 37,000  Level FlightAware ADS-B
Fri 05:12:50 AM 38.2680 -83.9120 57° Northeast 484 557 37,000  Level FlightAware ADS-B
Fri 05:13:30 AM 38.3110 -83.8320 56° Northeast 484 557 37,000  Level FlightAware ADS-B
Fri 05:14:19 AM 38.3630 -83.7330 56° Northeast 484 557 37,000  Level FlightAware ADS-B
Fri 05:14:55 AM 38.4020 -83.6610 55° Northeast 484 557 37,000  Level FlightAware ADS-B
Fri 05:16:27 AM 38.5300 -83.4080 57° Northeast 482 555 37,000  Level FlightAware ADS-B
Fri 05:17:00 AM 38.5760 -83.3170 57° Northeast 483 556 37,000  Level FlightAware ADS-B
Fri 05:17:50 AM 38.6370 -83.1980 57° Northeast 484 557 37,000  Level FlightAware ADS-B
Fri 05:18:32 AM 38.6880 -83.0990 57° Northeast 485 558 37,000  Level FlightAware ADS-B
Fri 05:19:10 AM 38.7330 -83.0100 57° Northeast 485 558 37,000  Level FlightAware ADS-B
Fri 05:19:52 AM 38.7840 -82.9090 57° Northeast 484 557 37,000  Level FlightAware ADS-B
Fri 05:20:38 AM 38.8400 -82.7960 58° Northeast 482 555 37,000  Level FlightAware ADS-B
Fri 05:21:20 AM 38.8900 -82.6970 57° Northeast 482 555 37,000  Level FlightAware ADS-B
Fri 05:22:00 AM 38.9400 -82.5980 57° Northeast 483 556 37,000  Level FlightAware ADS-B
Fri 05:22:44 AM 38.9930 -82.4920 57° Northeast 484 557 37,000  Level FlightAware ADS-B
Fri 05:23:24 AM 39.0420 -82.3920 58° Northeast 485 558 37,000  Level FlightAware ADS-B
Fri 05:24:08 AM 39.0960 -82.2850 57° Northeast 487 560 37,000  Level FlightAware ADS-B
Fri 05:24:48 AM 39.1430 -82.1890 58° Northeast 488 562 37,000  Level FlightAware ADS-B
Fri 05:25:32 AM 39.1970 -82.0790 58° Northeast 490 564 37,000  Level FlightAware ADS-B
Fri 05:26:12 AM 39.2400 -81.9740 62° Northeast 506 582 37,000  Level FlightAware ADS-B
Fri 05:26:56 AM 39.2620 -81.8460 77° East 515 593 37,000  Level FlightAware ADS-B
Fri 05:27:36 AM 39.2810 -81.7250 78° East 515 593 37,000  Level FlightAware ADS-B
Fri 05:28:14 AM 39.3060 -81.6140 74° East 508 585 37,000  Level FlightAware ADS-B
Fri 05:28:58 AM 39.3490 -81.4910 66° East 499 574 37,000  Level FlightAware ADS-B
Fri 05:29:40 AM 39.3990 -81.3880 58° Northeast 494 568 37,000  Level FlightAware ADS-B
Fri 05:30:24 AM 39.4540 -81.2790 57° Northeast 497 572 37,000  Level FlightAware ADS-B
Fri 05:31:08 AM 39.5080 -81.1710 57° Northeast 499 574 37,000  Level FlightAware ADS-B
Fri 05:31:49 AM 39.5580 -81.0680 58° Northeast 500 575 37,000  Level FlightAware ADS-B
Fri 05:32:29 AM 39.6090 -80.9640 57° Northeast 500 575 37,000  Level FlightAware ADS-B
Fri 05:33:10 AM 39.6600 -80.8610 57° Northeast 500 575 37,000  Level FlightAware ADS-B
Fri 05:33:56 AM 39.7180 -80.7420 58° Northeast 501 577 37,000  Level FlightAware ADS-B
Fri 05:34:36 AM 39.7680 -80.6420 57° Northeast 502 578 37,000  Level FlightAware ADS-B
Fri 05:35:14 AM 39.8150 -80.5450 58° Northeast 504 580 37,000  Level FlightAware ADS-B
Fri 05:35:59 AM 39.8710 -80.4300 58° Northeast 504 580 37,000  Level FlightAware ADS-B
Fri 05:36:41 AM 39.9230 -80.3220 58° Northeast 505 581 37,000  Level FlightAware ADS-B
Fri 05:37:21 AM 39.9720 -80.2220 57° Northeast 504 580 37,000  Level FlightAware ADS-B
Fri 05:38:06 AM 40.0300 -80.1000 58° Northeast 505 581 37,000  Level FlightAware ADS-B
Fri 05:38:49 AM 40.0820 -79.9920 58° Northeast 505 581 37,000  Level FlightAware ADS-B
Fri 05:39:30 AM 40.1340 -79.8830 58° Northeast 505 581 37,000  Level FlightAware ADS-B
Fri 05:40:08 AM 40.1810 -79.7850 58° Northeast 504 580 37,000  Level FlightAware ADS-B
Fri 05:40:55 AM 40.2380 -79.6660 58° Northeast 503 579 37,000  Level FlightAware ADS-B
Fri 05:41:38 AM 40.2910 -79.5550 58° Northeast 501 577 37,000  Level FlightAware ADS-B
Fri 05:42:16 AM 40.3370 -79.4540 59° Northeast 500 575 37,000  Level FlightAware ADS-B
Fri 05:43:02 AM 40.3930 -79.3360 58° Northeast 499 574 37,000  Level FlightAware ADS-B
Fri 05:43:44 AM 40.4440 -79.2270 58° Northeast 500 575 37,000  Level FlightAware ADS-B
Fri 05:44:24 AM 40.4920 -79.1260 58° Northeast 501 577 37,000  Level FlightAware ADS-B
Fri 05:45:21 AM 40.5481 -79.0011 58° Northeast 502 578 37,000  Level Cleveland Center
Fri 05:46:21 AM 40.6211 -78.8461 58° Northeast 502 578 37,000  Level Cleveland Center
Fri 05:52:03 AM 41.0488 -77.9070 58° Northeast 510 587 37,000  Level FlightAware ADS-B
Fri 05:52:39 AM 41.0929 -77.8078 59° Northeast 508 585 37,000 -176 Level FlightAware ADS-B
Fri 05:53:11 AM 41.1308 -77.7221 60° Northeast 508 585 36,800 -656 Descending FlightAware ADS-B
Fri 05:53:43 AM 41.1688 -77.6368 59° Northeast 504 580 36,300 -821 Descending FlightAware ADS-B
Fri 05:54:46 AM 41.2420 -77.4701 60° Northeast 499 574 35,500 -1,038 Descending FlightAware ADS-B
Fri 05:55:27 AM 41.2893 -77.3647 59° Northeast 496 571 34,500 -1,663 Descending FlightAware ADS-B
Fri 05:56:09 AM 41.3381 -77.2540 60° Northeast 496 571 33,200 -1,840 Descending FlightAware ADS-B
Fri 05:56:42 AM 41.3768 -77.1642 60° Northeast 497 572 32,200 -2,031 Descending FlightAware ADS-B
Fri 05:57:14 AM 41.4141 -77.0815 59° Northeast 500 575 31,000 -2,025 Descending FlightAware ADS-B
Fri 05:58:02 AM 41.4702 -76.9501 60° Northeast 504 580 29,500 -1,395 Descending FlightAware ADS-B
Fri 05:58:40 AM 41.5140 -76.8480 60° Northeast 504 580 29,000 -435 Descending FlightAware ADS-B
Fri 05:59:11 AM 41.5501 -76.7642 60° Northeast 508 585 29,000 -86 Level FlightAware ADS-B
Fri 05:59:50 AM 41.5955 -76.6611 59° Northeast 505 581 28,900 -585 Descending FlightAware ADS-B
Fri 06:00:33 AM 41.6459 -76.5423 60° Northeast 503 579 28,200 -987 Descending FlightAware ADS-B
Fri 06:01:09 AM 41.6870 -76.4453 60° Northeast 502 578 27,600 -1,139 Descending FlightAware ADS-B
Fri 06:01:52 AM 41.7359 -76.3296 60° Northeast 500 575 26,700 -1,121 Descending FlightAware ADS-B
Fri 06:02:56 AM 41.8082 -76.1588 60° Northeast 500 575 25,600 -1,029 Descending FlightAware ADS-B
Fri 06:03:37 AM 41.8520 -76.0560 60° Northeast 485 558 24,900 -1,047 Descending FlightAware ADS-B
Fri 06:04:22 AM 41.8970 -75.9490 61° Northeast 482 555 24,100 -794 Descending FlightAware ADS-B
Fri 06:04:45 AM 41.9210 -75.8910 61° Northeast 484 557 24,000 -90 Descending FlightAware ADS-B
Fri 06:05:29 AM 41.9630 -75.7890 61° Northeast 481 554 24,000  Level FlightAware ADS-B
Fri 06:06:28 AM 42.0310 -75.6280 60° Northeast 484 557 24,000  Level FlightAware ADS-B
Fri 06:07:14 AM 42.0900 -75.4850 61° Northeast 479 551 24,000  Level FlightAware ADS-B
Fri 06:07:49 AM 42.1270 -75.3960 61° Northeast 480 552 24,000  Level FlightAware ADS-B
Fri 06:09:01 AM 42.1970 -75.2260 61° Northeast 498 573 24,000 -233 Level FlightAware ADS-B
Fri 06:09:58 AM 42.2680 -75.0510 61° Northeast 493 567 23,500 -219 Descending FlightAware ADS-B
Fri 06:11:18 AM 42.3430 -74.8680 61° Northeast 493 567 23,500 -4,091 Level FlightAware ADS-B
Fri 06:12:32 AM 42.4244 -74.6594 61° Northeast 436 502 13,000 -5,418 Descending Boston Center
Fri 06:13:32 AM 42.4792 -74.5317 60° Northeast 385 443 11,400 -1,091 Descending Boston Center
Fri 06:14:33 AM 42.5250 -74.4150 62° Northeast 335 386 10,800 -1,008 Descending Boston Center
Fri 06:15:37 AM 42.5708 -74.2953 63° Northeast 329 379 9,300 -1,488 Descending Boston Center
Fri 06:16:34 AM 42.6119 -74.1978 60° Northeast 324 373 7,800 -1,373 Descending Boston Center
Fri 06:17:35 AM 42.6614 -74.1003 55° Northeast 315 362 6,600 -1,438 Descending Boston Center
Fri 06:18:35 AM 42.7311 -74.0286 37° Northeast 308 354 4,900 -1,426 Descending Boston Center
Fri 06:19:37 AM 42.7964 -73.9764 30° Northeast 298 343 3,700 -1,082 Descending Boston Center
Fri 06:20:37 AM 42.8617 -73.9328 26° Northeast 239 275 2,700 -650 Descending Boston Center
Fri 06:21:37 AM 42.9228 -73.8861 29° Northeast 219 252 2,400 -350 Descending Boston Center
Fri 06:22:37 AM 42.9256 -73.8208 87° East 174 200 2,000 -200 Descending Boston Center
Fri 06:23:37 AM 42.8839 -73.8114 171° South 88 101 2,000  Level Boston Center
Fri 06:24:37 AM 42.8633 -73.7942 148° Southeast 88 101 2,000 -341 Level Boston Center
Fri 06:25:40 AM 42.8111 -73.8128 195° South 107 123 1,300 -585 Descending Boston Center
Fri 06:26:40 AM 42.7819 -73.8092 175° South 104 120 800 -500 Descending Boston Center

Login

Don't have an account? Register now (free) for customized features, flight alerts, and more!